Time,TemperatureF,DewpointF,PressureIn,WindDirection,WindDirectionDegrees,WindSpeedMPH,WindSpeedGustMPH,Humidity,HourlyPrecipIn,Conditions,Clouds,dailyrainin,SolarRadiationWatts/m^2,SoftwareType,DateUTC
2013-11-25 00:00:00,18.0,5.0,-100.00,SSW,202,6.0,-999.0,56,-99.99,,,-99.99,0.000000,,2013-11-25 05:00:00,
2013-11-25 00:43:00,18.0,5.0,-100.00,SSW,202,6.0,-999.0,56,-99.99,,,-99.99,0.000000,,2013-11-25 05:43:00,
2013-11-25 00:53:00,18.0,5.0,-100.00,SSW,202,6.0,-999.0,56,-99.99,,,-99.99,0.000000,,2013-11-25 05:53:00,
2013-11-25 01:00:00,18.0,6.0,-100.00,SSW,202,6.0,-999.0,58,-99.99,,,-99.99,0.000000,,2013-11-25 06:00:00,
2013-11-25 01:42:00,18.0,6.0,-100.00,SSW,202,6.0,-999.0,58,-99.99,,,-99.99,0.000000,,2013-11-25 06:42:00,
2013-11-25 01:52:00,18.0,6.0,-100.00,SSW,202,6.0,-999.0,58,-99.99,,,-99.99,0.000000,,2013-11-25 06:52:00,
2013-11-25 02:00:00,19.0,6.0,-100.00,SW,225,5.0,-999.0,56,-99.99,,,-99.99,0.000000,,2013-11-25 07:00:00,
2013-11-25 02:42:00,19.0,6.0,-100.00,SW,225,5.0,-999.0,56,-99.99,,,-99.99,0.000000,,2013-11-25 07:42:00,
2013-11-25 02:52:00,19.0,6.0,-100.00,SW,225,5.0,-999.0,56,-99.99,,,-99.99,0.000000,,2013-11-25 07:52:00,
2013-11-25 03:00:00,19.0,5.0,-100.00,SSW,202,5.0,-999.0,53,-99.99,,,-99.99,0.000000,,2013-11-25 08:00:00,
2013-11-25 03:42:00,19.0,5.0,-100.00,SSW,202,5.0,-999.0,53,-99.99,,,-99.99,0.000000,,2013-11-25 08:42:00,
2013-11-25 03:52:00,19.0,5.0,-100.00,SSW,202,5.0,-999.0,53,-99.99,,,-99.99,0.000000,,2013-11-25 08:52:00,
2013-11-25 04:00:00,18.0,4.0,-100.00,SSW,202,5.0,-999.0,52,-99.99,,,-99.99,0.000000,,2013-11-25 09:00:00,
2013-11-25 04:43:00,18.0,4.0,-100.00,SSW,202,5.0,-999.0,52,-99.99,,,-99.99,0.000000,,2013-11-25 09:43:00,
2013-11-25 04:53:00,18.0,4.0,-100.00,SSW,202,5.0,-999.0,52,-99.99,,,-99.99,0.000000,,2013-11-25 09:53:00,
2013-11-25 05:00:00,17.0,5.0,-100.00,South,180,4.0,-999.0,56,-99.99,,,-99.99,0.000000,,2013-11-25 10:00:00,
2013-11-25 05:43:00,17.0,5.0,-100.00,South,180,4.0,-999.0,56,-99.99,,,-99.99,0.000000,,2013-11-25 10:43:00,
2013-11-25 05:53:00,17.0,5.0,-100.00,South,180,4.0,-999.0,56,-99.99,,,-99.99,0.000000,,2013-11-25 10:53:00,
2013-11-25 06:00:00,19.0,6.0,-100.00,SSW,202,6.0,-999.0,58,-99.99,,,-99.99,0.000000,,2013-11-25 11:00:00,
2013-11-25 06:43:00,19.0,6.0,-100.00,SSW,202,6.0,-999.0,58,-99.99,,,-99.99,0.000000,,2013-11-25 11:43:00,
2013-11-25 06:52:00,19.0,6.0,-100.00,SSW,202,6.0,-999.0,58,-99.99,,,-99.99,0.000000,,2013-11-25 11:52:00,
2013-11-25 07:00:00,20.0,8.0,-100.00,SSW,202,6.0,-999.0,58,-99.99,,,-99.99,0.000000,,2013-11-25 12:00:00,
2013-11-25 07:42:00,20.0,8.0,-100.00,SSW,202,6.0,-999.0,58,-99.99,,,-99.99,0.000000,,2013-11-25 12:42:00,
2013-11-25 07:52:00,20.0,8.0,-100.00,SSW,202,6.0,-999.0,58,-99.99,,,-99.99,0.000000,,2013-11-25 12:52:00,
2013-11-25 09:00:00,23.0,11.0,-100.00,SW,225,8.0,-999.0,58,-99.99,,,-99.99,25.520000,,2013-11-25 14:00:00,
2013-11-25 09:42:00,23.0,11.0,-100.00,SW,225,8.0,-999.0,58,-99.99,,,-99.99,25.520000,,2013-11-25 14:42:00,
2013-11-25 09:52:00,23.0,11.0,-100.00,SW,225,8.0,-999.0,58,-99.99,,,-99.99,25.520000,,2013-11-25 14:52:00,
2013-11-25 10:00:00,24.0,12.0,-100.00,SSW,202,8.0,-999.0,59,-99.99,,,-99.99,58.000000,,2013-11-25 15:00:00,
2013-11-25 10:45:00,24.0,12.0,-100.00,SSW,202,8.0,-999.0,59,-99.99,,,-99.99,58.000000,,2013-11-25 15:45:00,
2013-11-25 10:54:00,24.0,12.0,-100.00,SSW,202,8.0,-999.0,59,-99.99,,,-99.99,58.000000,,2013-11-25 15:54:00,
2013-11-25 11:00:00,25.0,13.0,-100.00,SW,225,7.0,-999.0,59,-99.99,,,-99.99,104.400002,,2013-11-25 16:00:00,
2013-11-25 11:43:00,25.0,13.0,-100.00,SW,225,7.0,-999.0,59,-99.99,,,-99.99,104.400002,,2013-11-25 16:43:00,
2013-11-25 11:52:00,25.0,13.0,-100.00,SW,225,7.0,-999.0,59,-99.99,,,-99.99,104.400002,,2013-11-25 16:52:00,
2013-11-25 12:00:00,27.0,13.0,-100.00,SSW,202,9.0,-999.0,53,-99.99,,,-99.99,145.000000,,2013-11-25 17:00:00,
2013-11-25 12:43:00,27.0,13.0,-100.00,SSW,202,9.0,-999.0,53,-99.99,,,-99.99,145.000000,,2013-11-25 17:43:00,
2013-11-25 12:52:00,27.0,13.0,-100.00,SSW,202,9.0,-999.0,53,-99.99,,,-99.99,145.000000,,2013-11-25 17:52:00,
2013-11-25 13:00:00,29.0,13.0,-100.00,SW,225,8.0,-999.0,51,-99.99,,,-99.99,176.320007,,2013-11-25 18:00:00,
2013-11-25 13:42:00,29.0,13.0,-100.00,SW,225,8.0,-999.0,51,-99.99,,,-99.99,176.320007,,2013-11-25 18:42:00,
2013-11-25 13:52:00,29.0,13.0,-100.00,SW,225,8.0,-999.0,51,-99.99,,,-99.99,176.320007,,2013-11-25 18:52:00,
2013-11-25 14:00:00,29.0,14.0,-100.00,SW,225,9.0,-999.0,52,-99.99,,,-99.99,133.399994,,2013-11-25 19:00:00,
2013-11-25 14:42:00,29.0,14.0,-100.00,SW,225,9.0,-999.0,52,-99.99,,,-99.99,133.399994,,2013-11-25 19:42:00,
2013-11-25 14:52:00,29.0,14.0,-100.00,SW,225,9.0,-999.0,52,-99.99,,,-99.99,133.399994,,2013-11-25 19:52:00,
2013-11-25 16:00:00,27.0,22.0,-100.00,SW,225,9.0,-999.0,80,-99.99,,,-99.99,46.400002,,2013-11-25 21:00:00,
2013-11-25 16:44:00,27.0,22.0,-100.00,SW,225,9.0,-999.0,80,-99.99,,,-99.99,46.400002,,2013-11-25 21:44:00,
2013-11-25 16:54:00,27.0,22.0,-100.00,SW,225,9.0,-999.0,80,-99.99,,,-99.99,46.400002,,2013-11-25 21:54:00,
2013-11-25 18:00:00,27.0,26.0,-100.00,SW,225,7.0,-999.0,93,-99.99,,,-99.99,1.160000,,2013-11-25 23:00:00,
2013-11-25 18:42:00,27.0,26.0,-100.00,SW,225,7.0,-999.0,93,-99.99,,,-99.99,1.160000,,2013-11-25 23:42:00,
2013-11-25 18:52:00,27.0,26.0,-100.00,SW,225,7.0,-999.0,93,-99.99,,,-99.99,1.160000,,2013-11-25 23:52:00,
2013-11-25 19:00:00,28.0,25.0,-100.00,SW,225,8.0,-999.0,88,-99.99,,,-99.99,0.000000,,2013-11-26 00:00:00,
2013-11-25 19:42:00,28.0,25.0,-100.00,SW,225,8.0,-999.0,88,-99.99,,,-99.99,0.000000,,2013-11-26 00:42:00,
2013-11-25 19:52:00,28.0,25.0,-100.00,SW,225,8.0,-999.0,88,-99.99,,,-99.99,0.000000,,2013-11-26 00:52:00,
2013-11-25 20:00:00,29.0,23.0,-100.00,SW,225,7.0,-999.0,80,-99.99,,,-99.99,0.000000,,2013-11-26 01:00:00,
2013-11-25 20:42:00,29.0,23.0,-100.00,SW,225,7.0,-999.0,80,-99.99,,,-99.99,0.000000,,2013-11-26 01:42:00,
2013-11-25 20:52:00,29.0,23.0,-100.00,SW,225,7.0,-999.0,80,-99.99,,,-99.99,0.000000,,2013-11-26 01:52:00,
2013-11-25 21:00:00,29.0,24.0,-100.00,SW,225,7.0,-999.0,82,-99.99,,,-99.99,0.000000,,2013-11-26 02:00:00,
2013-11-25 21:42:00,29.0,24.0,-100.00,SW,225,7.0,-999.0,82,-99.99,,,-99.99,0.000000,,2013-11-26 02:42:00,
2013-11-25 21:52:00,29.0,24.0,-100.00,SW,225,7.0,-999.0,82,-99.99,,,-99.99,0.000000,,2013-11-26 02:52:00,
2013-11-25 22:00:00,29.0,25.0,-100.00,SW,225,6.0,-999.0,84,-99.99,,,-99.99,0.000000,,2013-11-26 03:00:00,
2013-11-25 22:44:00,29.0,25.0,-100.00,SW,225,6.0,-999.0,84,-99.99,,,-99.99,0.000000,,2013-11-26 03:44:00,
2013-11-25 22:54:00,29.0,25.0,-100.00,SW,225,6.0,-999.0,84,-99.99,,,-99.99,0.000000,,2013-11-26 03:54:00,